Seneca, Pennsylvania
Current Conditions -  °F | °C
As of 7:15 PM on Saturday 25 Oct 2014 (Local Time) from KFKL Reporting Station
Clear Clear  
Wind Chill: 61°   Ceiling: Unl
Heat Index: 61°   Visibility: 10mi
Dew Point: 43°   Wind: 15mph
Humidity: 52%   Direction: 290°WNW
Pressure: 29.75"   Gusts: 28mph
Location:  41.38°N, 79.7°W
Report Text: KFKL 252315Z 29013G24KT 270V330 10SM CLR 16/06 A2975 RMK AO1
Loading
Personal Weather Stations






























Interactive Weather Map
Tropical Storm Tracking
New forecast layout! Learn more

10-Day Weather Forecast

Advertisements
Track Severe Weather on mobile